sensor_id;sensor_type;location;lat;lon;timestamp;temperature;humidity
22469;DHT22;11401;50.792;4.352;2023-05-10T00:00:33;19.20;67.80
22469;DHT22;11401;50.792;4.352;2023-05-10T00:03:00;19.20;67.80
22469;DHT22;11401;50.792;4.352;2023-05-10T00:05:27;19.20;67.70
22469;DHT22;11401;50.792;4.352;2023-05-10T00:07:54;19.20;67.70
22469;DHT22;11401;50.792;4.352;2023-05-10T00:10:21;19.10;67.80
22469;DHT22;11401;50.792;4.352;2023-05-10T00:12:49;19.10;67.40
22469;DHT22;11401;50.792;4.352;2023-05-10T00:15:16;19.10;67.90
22469;DHT22;11401;50.792;4.352;2023-05-10T00:17:43;19.10;68.10
22469;DHT22;11401;50.792;4.352;2023-05-10T00:20:11;19.10;67.90
22469;DHT22;11401;50.792;4.352;2023-05-10T00:22:38;19.10;67.90
22469;DHT22;11401;50.792;4.352;2023-05-10T00:25:05;19.10;67.80
22469;DHT22;11401;50.792;4.352;2023-05-10T00:27:32;19.10;67.70
22469;DHT22;11401;50.792;4.352;2023-05-10T00:29:59;19.10;67.90
22469;DHT22;11401;50.792;4.352;2023-05-10T00:32:28;19.10;68.00
22469;DHT22;11401;50.792;4.352;2023-05-10T00:34:55;19.10;67.70
22469;DHT22;11401;50.792;4.352;2023-05-10T00:37:22;19.10;67.60
22469;DHT22;11401;50.792;4.352;2023-05-10T00:39:49;19.10;67.70
22469;DHT22;11401;50.792;4.352;2023-05-10T00:42:16;19.10;67.80
22469;DHT22;11401;50.792;4.352;2023-05-10T00:44:43;19.10;67.80
22469;DHT22;11401;50.792;4.352;2023-05-10T00:47:10;19.10;67.70
22469;DHT22;11401;50.792;4.352;2023-05-10T00:49:38;19.20;67.70
22469;DHT22;11401;50.792;4.352;2023-05-10T00:52:05;19.20;67.80
22469;DHT22;11401;50.792;4.352;2023-05-10T00:54:32;19.20;67.70
22469;DHT22;11401;50.792;4.352;2023-05-10T00:56:59;19.10;67.60
22469;DHT22;11401;50.792;4.352;2023-05-10T00:59:27;19.10;67.70
22469;DHT22;11401;50.792;4.352;2023-05-10T01:01:55;19.10;67.70
22469;DHT22;11401;50.792;4.352;2023-05-10T01:04:22;19.10;67.40
22469;DHT22;11401;50.792;4.352;2023-05-10T01:06:52;19.10;67.60
22469;DHT22;11401;50.792;4.352;2023-05-10T01:09:21;19.10;67.80
22469;DHT22;11401;50.792;4.352;2023-05-10T01:11:49;19.10;67.50
22469;DHT22;11401;50.792;4.352;2023-05-10T01:14:18;19.10;67.80
22469;DHT22;11401;50.792;4.352;2023-05-10T01:16:47;19.10;67.80
22469;DHT22;11401;50.792;4.352;2023-05-10T01:19:26;19.20;67.70
22469;DHT22;11401;50.792;4.352;2023-05-10T01:33:38;19.10;68.10
22469;DHT22;11401;50.792;4.352;2023-05-10T01:38:50;19.00;67.60
22469;DHT22;11401;50.792;4.352;2023-05-10T01:41:48;19.00;67.30
22469;DHT22;11401;50.792;4.352;2023-05-10T01:44:35;19.00;67.90
22469;DHT22;11401;50.792;4.352;2023-05-10T01:47:17;19.00;68.10
22469;DHT22;11401;50.792;4.352;2023-05-10T01:49:50;19.00;68.00
22469;DHT22;11401;50.792;4.352;2023-05-10T01:52:21;19.10;68.80
22469;DHT22;11401;50.792;4.352;2023-05-10T01:54:53;19.10;68.00
22469;DHT22;11401;50.792;4.352;2023-05-10T01:57:25;19.00;67.30
22469;DHT22;11401;50.792;4.352;2023-05-10T01:59:53;19.00;67.90
22469;DHT22;11401;50.792;4.352;2023-05-10T02:02:21;19.10;67.70
22469;DHT22;11401;50.792;4.352;2023-05-10T02:04:51;19.00;67.60
22469;DHT22;11401;50.792;4.352;2023-05-10T02:07:21;19.00;67.60
22469;DHT22;11401;50.792;4.352;2023-05-10T02:09:48;19.00;67.80
22469;DHT22;11401;50.792;4.352;2023-05-10T02:12:17;19.00;67.60
22469;DHT22;11401;50.792;4.352;2023-05-10T02:14:45;19.00;67.50
22469;DHT22;11401;50.792;4.352;2023-05-10T02:17:14;19.00;67.90
22469;DHT22;11401;50.792;4.352;2023-05-10T02:19:42;19.00;67.90
22469;DHT22;11401;50.792;4.352;2023-05-10T02:22:10;19.00;67.70
22469;DHT22;11401;50.792;4.352;2023-05-10T02:24:37;19.00;67.70
22469;DHT22;11401;50.792;4.352;2023-05-10T02:27:06;19.00;67.40
22469;DHT22;11401;50.792;4.352;2023-05-10T02:29:34;19.00;67.40
22469;DHT22;11401;50.792;4.352;2023-05-10T02:32:02;18.90;67.30
22469;DHT22;11401;50.792;4.352;2023-05-10T02:34:30;18.90;68.20
22469;DHT22;11401;50.792;4.352;2023-05-10T02:36:58;19.00;67.80
22469;DHT22;11401;50.792;4.352;2023-05-10T02:39:26;19.00;67.40
22469;DHT22;11401;50.792;4.352;2023-05-10T02:41:57;19.00;67.50
22469;DHT22;11401;50.792;4.352;2023-05-10T02:44:26;18.90;67.60
22469;DHT22;11401;50.792;4.352;2023-05-10T02:46:54;18.90;67.80
22469;DHT22;11401;50.792;4.352;2023-05-10T02:49:22;18.90;68.00
22469;DHT22;11401;50.792;4.352;2023-05-10T02:51:56;19.00;67.90
22469;DHT22;11401;50.792;4.352;2023-05-10T02:54:29;19.00;67.50
22469;DHT22;11401;50.792;4.352;2023-05-10T02:56:58;18.90;67.80
22469;DHT22;11401;50.792;4.352;2023-05-10T02:59:28;19.00;67.80
22469;DHT22;11401;50.792;4.352;2023-05-10T03:01:55;19.00;67.70
22469;DHT22;11401;50.792;4.352;2023-05-10T03:04:22;19.00;67.40
22469;DHT22;11401;50.792;4.352;2023-05-10T03:06:52;18.90;67.80
22469;DHT22;11401;50.792;4.352;2023-05-10T03:09:19;18.90;68.00
22469;DHT22;11401;50.792;4.352;2023-05-10T03:20:20;18.90;67.60
22469;DHT22;11401;50.792;4.352;2023-05-10T03:22:54;18.80;68.00
22469;DHT22;11401;50.792;4.352;2023-05-10T03:25:23;18.90;67.70
22469;DHT22;11401;50.792;4.352;2023-05-10T03:27:52;18.80;67.50
22469;DHT22;11401;50.792;4.352;2023-05-10T03:30:19;18.80;67.80
22469;DHT22;11401;50.792;4.352;2023-05-10T03:32:47;18.80;67.80
22469;DHT22;11401;50.792;4.352;2023-05-10T03:35:16;18.80;68.00
22469;DHT22;11401;50.792;4.352;2023-05-10T03:37:43;18.80;67.60
22469;DHT22;11401;50.792;4.352;2023-05-10T03:40:11;18.80;66.90
22469;DHT22;11401;50.792;4.352;2023-05-10T03:42:41;18.80;67.60
22469;DHT22;11401;50.792;4.352;2023-05-10T03:45:08;18.80;67.70
22469;DHT22;11401;50.792;4.352;2023-05-10T03:47:36;18.80;67.40
22469;DHT22;11401;50.792;4.352;2023-05-10T03:50:03;18.80;67.80
22469;DHT22;11401;50.792;4.352;2023-05-10T03:52:32;18.90;67.60
22469;DHT22;11401;50.792;4.352;2023-05-10T03:54:59;18.90;67.50
22469;DHT22;11401;50.792;4.352;2023-05-10T03:57:26;18.90;67.70
22469;DHT22;11401;50.792;4.352;2023-05-10T03:59:53;18.90;67.70
22469;DHT22;11401;50.792;4.352;2023-05-10T04:02:20;18.90;67.60
22469;DHT22;11401;50.792;4.352;2023-05-10T04:04:47;18.90;67.70
22469;DHT22;11401;50.792;4.352;2023-05-10T04:07:15;19.00;67.60
22469;DHT22;11401;50.792;4.352;2023-05-10T04:09:42;19.00;67.50
22469;DHT22;11401;50.792;4.352;2023-05-10T04:12:09;19.00;67.40
22469;DHT22;11401;50.792;4.352;2023-05-10T04:14:36;18.90;67.60
22469;DHT22;11401;50.792;4.352;2023-05-10T04:17:04;18.90;67.80
22469;DHT22;11401;50.792;4.352;2023-05-10T04:19:31;18.90;67.90
22469;DHT22;11401;50.792;4.352;2023-05-10T04:21:58;18.90;67.70
22469;DHT22;11401;50.792;4.352;2023-05-10T04:24:25;18.90;67.60
22469;DHT22;11401;50.792;4.352;2023-05-10T04:26:54;18.90;67.70
22469;DHT22;11401;50.792;4.352;2023-05-10T04:29:23;19.00;67.60
22469;DHT22;11401;50.792;4.352;2023-05-10T04:31:50;18.90;67.50
22469;DHT22;11401;50.792;4.352;2023-05-10T04:34:17;18.90;67.60
22469;DHT22;11401;50.792;4.352;2023-05-10T04:36:45;18.90;67.50
22469;DHT22;11401;50.792;4.352;2023-05-10T04:39:12;19.00;67.50
22469;DHT22;11401;50.792;4.352;2023-05-10T04:41:40;18.80;66.60
22469;DHT22;11401;50.792;4.352;2023-05-10T04:44:07;18.80;67.50
22469;DHT22;11401;50.792;4.352;2023-05-10T04:46:34;18.80;67.50
22469;DHT22;11401;50.792;4.352;2023-05-10T04:49:01;18.80;67.30
22469;DHT22;11401;50.792;4.352;2023-05-10T04:51:28;18.80;67.70
22469;DHT22;11401;50.792;4.352;2023-05-10T04:53:55;18.80;67.30
22469;DHT22;11401;50.792;4.352;2023-05-10T04:56:32;18.80;67.20
22469;DHT22;11401;50.792;4.352;2023-05-10T04:58:59;18.70;67.60
22469;DHT22;11401;50.792;4.352;2023-05-10T05:01:26;18.70;67.40
22469;DHT22;11401;50.792;4.352;2023-05-10T05:03:54;18.80;67.60
22469;DHT22;11401;50.792;4.352;2023-05-10T05:06:21;18.80;67.60
22469;DHT22;11401;50.792;4.352;2023-05-10T05:08:48;18.80;67.30
22469;DHT22;11401;50.792;4.352;2023-05-10T05:11:17;18.80;67.50
22469;DHT22;11401;50.792;4.352;2023-05-10T05:13:44;18.80;67.20
22469;DHT22;11401;50.792;4.352;2023-05-10T05:16:11;18.80;67.20
22469;DHT22;11401;50.792;4.352;2023-05-10T05:18:38;18.80;67.50
22469;DHT22;11401;50.792;4.352;2023-05-10T05:21:18;18.80;67.40
22469;DHT22;11401;50.792;4.352;2023-05-10T05:23:45;18.80;67.40
22469;DHT22;11401;50.792;4.352;2023-05-10T05:26:13;18.80;68.00
22469;DHT22;11401;50.792;4.352;2023-05-10T05:28:40;18.80;67.70
22469;DHT22;11401;50.792;4.352;2023-05-10T05:31:07;18.80;67.50
22469;DHT22;11401;50.792;4.352;2023-05-10T05:33:35;18.70;67.00
22469;DHT22;11401;50.792;4.352;2023-05-10T05:36:05;18.60;67.40
22469;DHT22;11401;50.792;4.352;2023-05-10T05:38:32;18.70;67.60
22469;DHT22;11401;50.792;4.352;2023-05-10T05:40:59;18.70;67.70
22469;DHT22;11401;50.792;4.352;2023-05-10T05:43:27;18.60;67.50
22469;DHT22;11401;50.792;4.352;2023-05-10T05:45:54;18.70;67.60
22469;DHT22;11401;50.792;4.352;2023-05-10T05:48:21;18.70;67.70
22469;DHT22;11401;50.792;4.352;2023-05-10T05:50:48;18.70;67.80
22469;DHT22;11401;50.792;4.352;2023-05-10T05:53:15;18.70;67.50
22469;DHT22;11401;50.792;4.352;2023-05-10T05:55:55;18.70;67.90
22469;DHT22;11401;50.792;4.352;2023-05-10T05:58:23;18.60;67.20
22469;DHT22;11401;50.792;4.352;2023-05-10T06:00:51;18.60;66.90
22469;DHT22;11401;50.792;4.352;2023-05-10T06:03:21;18.60;67.30
22469;DHT22;11401;50.792;4.352;2023-05-10T06:05:48;18.60;67.50
22469;DHT22;11401;50.792;4.352;2023-05-10T06:08:15;18.60;67.40
22469;DHT22;11401;50.792;4.352;2023-05-10T06:10:42;18.50;68.30
22469;DHT22;11401;50.792;4.352;2023-05-10T06:13:09;18.60;67.60
22469;DHT22;11401;50.792;4.352;2023-05-10T06:15:37;18.60;67.30
22469;DHT22;11401;50.792;4.352;2023-05-10T06:18:04;18.60;67.40
22469;DHT22;11401;50.792;4.352;2023-05-10T06:20:31;18.60;67.40
22469;DHT22;11401;50.792;4.352;2023-05-10T06:22:58;18.60;67.40
22469;DHT22;11401;50.792;4.352;2023-05-10T06:25:25;18.60;67.00
22469;DHT22;11401;50.792;4.352;2023-05-10T06:27:53;18.50;67.60
22469;DHT22;11401;50.792;4.352;2023-05-10T06:30:25;18.60;67.70
22469;DHT22;11401;50.792;4.352;2023-05-10T06:32:56;18.60;67.30
22469;DHT22;11401;50.792;4.352;2023-05-10T06:35:23;18.60;67.10
22469;DHT22;11401;50.792;4.352;2023-05-10T06:37:51;18.60;67.00
22469;DHT22;11401;50.792;4.352;2023-05-10T06:40:18;18.60;67.60
22469;DHT22;11401;50.792;4.352;2023-05-10T06:42:47;18.60;67.20
22469;DHT22;11401;50.792;4.352;2023-05-10T06:45:14;18.50;67.10
22469;DHT22;11401;50.792;4.352;2023-05-10T06:47:43;18.50;67.00
22469;DHT22;11401;50.792;4.352;2023-05-10T06:50:10;18.50;67.10
22469;DHT22;11401;50.792;4.352;2023-05-10T06:52:40;18.50;67.60
22469;DHT22;11401;50.792;4.352;2023-05-10T06:55:07;18.60;67.30
22469;DHT22;11401;50.792;4.352;2023-05-10T06:57:35;18.60;67.60
22469;DHT22;11401;50.792;4.352;2023-05-10T07:00:03;18.60;66.90
22469;DHT22;11401;50.792;4.352;2023-05-10T07:02:33;18.50;67.00
22469;DHT22;11401;50.792;4.352;2023-05-10T07:05:00;18.40;66.70
22469;DHT22;11401;50.792;4.352;2023-05-10T07:07:29;18.40;67.50
22469;DHT22;11401;50.792;4.352;2023-05-10T07:09:56;18.40;67.40
22469;DHT22;11401;50.792;4.352;2023-05-10T07:12:24;18.50;67.30
22469;DHT22;11401;50.792;4.352;2023-05-10T07:14:51;18.40;67.00
22469;DHT22;11401;50.792;4.352;2023-05-10T07:17:18;18.50;67.80
22469;DHT22;11401;50.792;4.352;2023-05-10T07:19:46;18.50;67.20
22469;DHT22;11401;50.792;4.352;2023-05-10T07:22:13;18.50;66.40
22469;DHT22;11401;50.792;4.352;2023-05-10T07:24:40;18.50;67.50
22469;DHT22;11401;50.792;4.352;2023-05-10T07:27:07;18.50;67.30
22469;DHT22;11401;50.792;4.352;2023-05-10T07:29:35;18.40;67.20
22469;DHT22;11401;50.792;4.352;2023-05-10T07:32:02;18.40;67.60
22469;DHT22;11401;50.792;4.352;2023-05-10T07:34:29;18.50;67.60
22469;DHT22;11401;50.792;4.352;2023-05-10T07:37:03;18.50;67.60
22469;DHT22;11401;50.792;4.352;2023-05-10T07:39:30;18.50;66.80
22469;DHT22;11401;50.792;4.352;2023-05-10T07:41:57;18.50;67.50
22469;DHT22;11401;50.792;4.352;2023-05-10T07:44:24;18.50;67.50
22469;DHT22;11401;50.792;4.352;2023-05-10T07:46:51;18.50;67.90
22469;DHT22;11401;50.792;4.352;2023-05-10T07:49:18;18.50;67.60
22469;DHT22;11401;50.792;4.352;2023-05-10T07:51:45;18.50;66.60
22469;DHT22;11401;50.792;4.352;2023-05-10T07:54:13;18.50;67.50
22469;DHT22;11401;50.792;4.352;2023-05-10T07:56:40;18.50;67.40
22469;DHT22;11401;50.792;4.352;2023-05-10T07:59:16;18.50;67.60
22469;DHT22;11401;50.792;4.352;2023-05-10T08:01:44;18.50;67.30
22469;DHT22;11401;50.792;4.352;2023-05-10T08:04:11;18.60;67.30
22469;DHT22;11401;50.792;4.352;2023-05-10T08:06:39;18.60;67.60
22469;DHT22;11401;50.792;4.352;2023-05-10T08:09:07;18.60;67.40
22469;DHT22;11401;50.792;4.352;2023-05-10T08:11:34;18.60;67.50
22469;DHT22;11401;50.792;4.352;2023-05-10T08:14:02;18.70;67.70
22469;DHT22;11401;50.792;4.352;2023-05-10T08:16:29;18.70;67.30
22469;DHT22;11401;50.792;4.352;2023-05-10T08:18:56;18.70;67.20
22469;DHT22;11401;50.792;4.352;2023-05-10T08:21:23;18.70;67.30
22469;DHT22;11401;50.792;4.352;2023-05-10T08:23:50;18.70;67.00
22469;DHT22;11401;50.792;4.352;2023-05-10T08:26:17;18.60;67.20
22469;DHT22;11401;50.792;4.352;2023-05-10T08:28:45;18.70;67.00
22469;DHT22;11401;50.792;4.352;2023-05-10T08:31:12;18.70;67.00
22469;DHT22;11401;50.792;4.352;2023-05-10T08:33:39;18.60;67.00
22469;DHT22;11401;50.792;4.352;2023-05-10T08:36:08;18.70;67.30
22469;DHT22;11401;50.792;4.352;2023-05-10T08:38:36;18.70;68.00
22469;DHT22;11401;50.792;4.352;2023-05-10T08:41:05;18.70;67.10
22469;DHT22;11401;50.792;4.352;2023-05-10T08:43:33;18.70;67.30
22469;DHT22;11401;50.792;4.352;2023-05-10T08:46:03;18.70;67.40
22469;DHT22;11401;50.792;4.352;2023-05-10T08:48:33;18.80;67.30
22469;DHT22;11401;50.792;4.352;2023-05-10T08:51:03;18.70;67.00
22469;DHT22;11401;50.792;4.352;2023-05-10T08:53:31;18.70;67.20
22469;DHT22;11401;50.792;4.352;2023-05-10T08:56:00;18.80;67.00
22469;DHT22;11401;50.792;4.352;2023-05-10T08:58:28;18.70;66.90
22469;DHT22;11401;50.792;4.352;2023-05-10T09:00:55;18.70;67.10
22469;DHT22;11401;50.792;4.352;2023-05-10T09:03:22;18.70;66.80
22469;DHT22;11401;50.792;4.352;2023-05-10T09:05:49;18.70;66.80
22469;DHT22;11401;50.792;4.352;2023-05-10T09:08:17;18.70;67.00
22469;DHT22;11401;50.792;4.352;2023-05-10T09:10:44;18.70;67.20
22469;DHT22;11401;50.792;4.352;2023-05-10T09:13:15;18.70;66.90
22469;DHT22;11401;50.792;4.352;2023-05-10T09:15:44;18.80;67.30
22469;DHT22;11401;50.792;4.352;2023-05-10T09:18:12;18.80;67.00
22469;DHT22;11401;50.792;4.352;2023-05-10T09:20:39;18.80;67.20
22469;DHT22;11401;50.792;4.352;2023-05-10T09:23:07;18.70;67.00
22469;DHT22;11401;50.792;4.352;2023-05-10T09:25:35;18.70;66.90
22469;DHT22;11401;50.792;4.352;2023-05-10T09:28:02;18.70;66.90
22469;DHT22;11401;50.792;4.352;2023-05-10T09:30:33;18.70;67.20
22469;DHT22;11401;50.792;4.352;2023-05-10T09:33:00;18.70;67.10
22469;DHT22;11401;50.792;4.352;2023-05-10T09:35:30;18.70;67.30
22469;DHT22;11401;50.792;4.352;2023-05-10T09:38:00;18.60;67.00
22469;DHT22;11401;50.792;4.352;2023-05-10T09:40:28;18.70;67.50
22469;DHT22;11401;50.792;4.352;2023-05-10T09:43:29;18.60;66.90
22469;DHT22;11401;50.792;4.352;2023-05-10T09:45:49;18.60;67.50
22469;DHT22;11401;50.792;4.352;2023-05-10T09:48:23;18.70;67.80
22469;DHT22;11401;50.792;4.352;2023-05-10T09:50:57;18.70;67.40
22469;DHT22;11401;50.792;4.352;2023-05-10T09:53:25;18.60;67.00
22469;DHT22;11401;50.792;4.352;2023-05-10T09:55:52;18.60;67.50
22469;DHT22;11401;50.792;4.352;2023-05-10T09:58:18;18.60;67.30
22469;DHT22;11401;50.792;4.352;2023-05-10T10:00:46;18.60;67.40
22469;DHT22;11401;50.792;4.352;2023-05-10T10:03:18;18.70;67.50
22469;DHT22;11401;50.792;4.352;2023-05-10T10:05:47;18.60;67.40
22469;DHT22;11401;50.792;4.352;2023-05-10T10:08:15;18.70;67.60
22469;DHT22;11401;50.792;4.352;2023-05-10T10:10:43;18.70;67.30
22469;DHT22;11401;50.792;4.352;2023-05-10T10:13:13;18.70;67.40
22469;DHT22;11401;50.792;4.352;2023-05-10T10:15:42;18.70;67.40
22469;DHT22;11401;50.792;4.352;2023-05-10T10:18:13;18.70;67.60
22469;DHT22;11401;50.792;4.352;2023-05-10T10:20:41;18.70;67.50
22469;DHT22;11401;50.792;4.352;2023-05-10T10:23:08;18.70;67.40
22469;DHT22;11401;50.792;4.352;2023-05-10T10:25:36;18.70;67.90
22469;DHT22;11401;50.792;4.352;2023-05-10T10:28:19;18.70;67.70
22469;DHT22;11401;50.792;4.352;2023-05-10T10:30:50;18.80;67.90
22469;DHT22;11401;50.792;4.352;2023-05-10T10:33:43;18.80;68.00
22469;DHT22;11401;50.792;4.352;2023-05-10T10:36:19;18.80;67.90
22469;DHT22;11401;50.792;4.352;2023-05-10T10:49:43;18.80;68.00
22469;DHT22;11401;50.792;4.352;2023-05-10T10:52:31;18.80;68.00
22469;DHT22;11401;50.792;4.352;2023-05-10T11:00:35;18.80;68.10
22469;DHT22;11401;50.792;4.352;2023-05-10T11:03:10;18.70;67.60
22469;DHT22;11401;50.792;4.352;2023-05-10T11:05:58;18.70;68.20
22469;DHT22;11401;50.792;4.352;2023-05-10T11:08:29;18.80;68.20
22469;DHT22;11401;50.792;4.352;2023-05-10T11:13:44;18.90;68.40
22469;DHT22;11401;50.792;4.352;2023-05-10T11:19:03;19.00;68.00
22469;DHT22;11401;50.792;4.352;2023-05-10T11:21:32;18.90;67.90
22469;DHT22;11401;50.792;4.352;2023-05-10T11:24:01;18.90;68.20
22469;DHT22;11401;50.792;4.352;2023-05-10T11:26:34;19.00;68.30
22469;DHT22;11401;50.792;4.352;2023-05-10T11:29:02;19.00;68.20
22469;DHT22;11401;50.792;4.352;2023-05-10T11:31:31;19.00;68.10
22469;DHT22;11401;50.792;4.352;2023-05-10T11:34:00;19.10;68.10
22469;DHT22;11401;50.792;4.352;2023-05-10T11:36:34;19.10;68.00
22469;DHT22;11401;50.792;4.352;2023-05-10T11:39:03;19.20;68.00
22469;DHT22;11401;50.792;4.352;2023-05-10T11:41:31;19.20;67.60
22469;DHT22;11401;50.792;4.352;2023-05-10T11:43:58;19.20;67.60
22469;DHT22;11401;50.792;4.352;2023-05-10T11:46:27;19.30;67.90
22469;DHT22;11401;50.792;4.352;2023-05-10T11:49:00;19.20;67.70
22469;DHT22;11401;50.792;4.352;2023-05-10T11:51:28;19.20;67.90
22469;DHT22;11401;50.792;4.352;2023-05-10T11:53:56;19.20;67.50
22469;DHT22;11401;50.792;4.352;2023-05-10T11:56:24;19.10;67.20
22469;DHT22;11401;50.792;4.352;2023-05-10T11:58:54;19.10;67.70
22469;DHT22;11401;50.792;4.352;2023-05-10T12:01:26;19.10;67.80
22469;DHT22;11401;50.792;4.352;2023-05-10T12:03:55;19.10;67.40
22469;DHT22;11401;50.792;4.352;2023-05-10T12:06:30;19.20;67.60
22469;DHT22;11401;50.792;4.352;2023-05-10T12:08:58;19.20;67.70
22469;DHT22;11401;50.792;4.352;2023-05-10T12:11:28;19.30;67.90
22469;DHT22;11401;50.792;4.352;2023-05-10T12:13:56;19.30;67.60
22469;DHT22;11401;50.792;4.352;2023-05-10T12:16:25;19.40;67.30
22469;DHT22;11401;50.792;4.352;2023-05-10T12:18:59;19.40;67.10
22469;DHT22;11401;50.792;4.352;2023-05-10T12:21:28;19.40;67.20
22469;DHT22;11401;50.792;4.352;2023-05-10T12:23:59;19.40;67.30
22469;DHT22;11401;50.792;4.352;2023-05-10T12:26:28;19.40;67.10
22469;DHT22;11401;50.792;4.352;2023-05-10T12:29:12;19.40;67.30
22469;DHT22;11401;50.792;4.352;2023-05-10T12:31:58;19.50;66.90
22469;DHT22;11401;50.792;4.352;2023-05-10T12:34:33;19.40;66.90
22469;DHT22;11401;50.792;4.352;2023-05-10T12:37:00;19.50;67.10
22469;DHT22;11401;50.792;4.352;2023-05-10T12:39:46;19.50;66.80
22469;DHT22;11401;50.792;4.352;2023-05-10T12:42:13;19.50;66.60
22469;DHT22;11401;50.792;4.352;2023-05-10T12:44:40;19.50;66.90
22469;DHT22;11401;50.792;4.352;2023-05-10T12:47:07;19.50;66.60
22469;DHT22;11401;50.792;4.352;2023-05-10T12:49:34;19.50;66.10
22469;DHT22;11401;50.792;4.352;2023-05-10T12:52:01;19.50;66.60
22469;DHT22;11401;50.792;4.352;2023-05-10T12:54:28;19.50;66.70
22469;DHT22;11401;50.792;4.352;2023-05-10T12:56:56;19.60;66.60
22469;DHT22;11401;50.792;4.352;2023-05-10T12:59:23;19.60;66.40
22469;DHT22;11401;50.792;4.352;2023-05-10T13:01:50;19.60;66.30
22469;DHT22;11401;50.792;4.352;2023-05-10T13:04:17;19.60;66.40
22469;DHT22;11401;50.792;4.352;2023-05-10T13:06:44;19.70;66.10
22469;DHT22;11401;50.792;4.352;2023-05-10T13:09:11;19.60;66.00
22469;DHT22;11401;50.792;4.352;2023-05-10T13:11:38;19.70;66.00
22469;DHT22;11401;50.792;4.352;2023-05-10T13:14:05;19.60;65.60
22469;DHT22;11401;50.792;4.352;2023-05-10T13:16:32;19.70;65.70
22469;DHT22;11401;50.792;4.352;2023-05-10T13:18:59;19.60;65.80
22469;DHT22;11401;50.792;4.352;2023-05-10T13:21:26;19.70;65.90
22469;DHT22;11401;50.792;4.352;2023-05-10T13:23:53;19.70;65.50
22469;DHT22;11401;50.792;4.352;2023-05-10T13:26:20;19.80;65.30
22469;DHT22;11401;50.792;4.352;2023-05-10T13:28:47;19.80;65.30
22469;DHT22;11401;50.792;4.352;2023-05-10T13:31:15;19.80;65.30
22469;DHT22;11401;50.792;4.352;2023-05-10T13:33:42;19.70;64.90
22469;DHT22;11401;50.792;4.352;2023-05-10T13:36:09;19.80;65.00
22469;DHT22;11401;50.792;4.352;2023-05-10T13:38:36;19.80;65.00
22469;DHT22;11401;50.792;4.352;2023-05-10T13:41:04;19.80;64.80
22469;DHT22;11401;50.792;4.352;2023-05-10T13:43:31;19.80;64.50
22469;DHT22;11401;50.792;4.352;2023-05-10T13:45:58;19.70;64.20
22469;DHT22;11401;50.792;4.352;2023-05-10T13:48:25;19.80;64.50
22469;DHT22;11401;50.792;4.352;2023-05-10T13:50:52;19.80;64.40
22469;DHT22;11401;50.792;4.352;2023-05-10T13:53:19;19.90;64.60
22469;DHT22;11401;50.792;4.352;2023-05-10T13:55:46;19.90;64.30
22469;DHT22;11401;50.792;4.352;2023-05-10T13:58:14;19.80;63.60
22469;DHT22;11401;50.792;4.352;2023-05-10T14:00:41;19.90;64.00
22469;DHT22;11401;50.792;4.352;2023-05-10T14:03:08;19.90;64.30
22469;DHT22;11401;50.792;4.352;2023-05-10T14:05:38;19.90;64.00
22469;DHT22;11401;50.792;4.352;2023-05-10T14:08:05;19.90;63.80
22469;DHT22;11401;50.792;4.352;2023-05-10T14:10:32;19.90;64.20
22469;DHT22;11401;50.792;4.352;2023-05-10T14:12:59;19.90;64.20
22469;DHT22;11401;50.792;4.352;2023-05-10T14:15:26;19.90;63.80
22469;DHT22;11401;50.792;4.352;2023-05-10T14:17:53;19.90;63.50
22469;DHT22;11401;50.792;4.352;2023-05-10T14:20:20;19.90;63.00
22469;DHT22;11401;50.792;4.352;2023-05-10T14:22:47;19.90;63.40
22469;DHT22;11401;50.792;4.352;2023-05-10T14:25:14;19.90;63.30
22469;DHT22;11401;50.792;4.352;2023-05-10T14:27:42;19.90;62.80
22469;DHT22;11401;50.792;4.352;2023-05-10T14:30:09;20.00;62.90
22469;DHT22;11401;50.792;4.352;2023-05-10T14:32:36;20.10;63.00
22469;DHT22;11401;50.792;4.352;2023-05-10T14:35:04;20.10;64.00
22469;DHT22;11401;50.792;4.352;2023-05-10T14:37:32;20.10;63.40
22469;DHT22;11401;50.792;4.352;2023-05-10T14:40:00;20.10;63.00
22469;DHT22;11401;50.792;4.352;2023-05-10T14:42:27;20.10;62.60
22469;DHT22;11401;50.792;4.352;2023-05-10T14:44:55;20.10;62.50
22469;DHT22;11401;50.792;4.352;2023-05-10T14:47:22;20.10;62.90
22469;DHT22;11401;50.792;4.352;2023-05-10T14:49:49;20.10;62.80
22469;DHT22;11401;50.792;4.352;2023-05-10T14:52:16;20.10;62.80
22469;DHT22;11401;50.792;4.352;2023-05-10T14:54:44;20.10;63.00
22469;DHT22;11401;50.792;4.352;2023-05-10T14:57:10;20.10;62.90
22469;DHT22;11401;50.792;4.352;2023-05-10T14:59:37;20.20;63.20
22469;DHT22;11401;50.792;4.352;2023-05-10T15:02:05;20.10;63.20
22469;DHT22;11401;50.792;4.352;2023-05-10T15:04:35;20.10;63.80
22469;DHT22;11401;50.792;4.352;2023-05-10T15:07:03;20.10;64.00
22469;DHT22;11401;50.792;4.352;2023-05-10T15:09:30;20.10;64.10
22469;DHT22;11401;50.792;4.352;2023-05-10T15:11:57;20.00;63.40
22469;DHT22;11401;50.792;4.352;2023-05-10T15:14:24;19.90;63.20
22469;DHT22;11401;50.792;4.352;2023-05-10T15:16:51;19.80;63.40
22469;DHT22;11401;50.792;4.352;2023-05-10T15:19:19;19.90;63.70
22469;DHT22;11401;50.792;4.352;2023-05-10T15:21:46;19.90;63.00
22469;DHT22;11401;50.792;4.352;2023-05-10T15:24:13;19.80;63.00
22469;DHT22;11401;50.792;4.352;2023-05-10T15:26:41;19.80;62.80
22469;DHT22;11401;50.792;4.352;2023-05-10T15:29:08;19.80;62.00
22469;DHT22;11401;50.792;4.352;2023-05-10T15:31:35;19.70;61.20
22469;DHT22;11401;50.792;4.352;2023-05-10T15:34:02;19.70;61.90
22469;DHT22;11401;50.792;4.352;2023-05-10T15:36:29;19.70;60.80
22469;DHT22;11401;50.792;4.352;2023-05-10T15:38:56;19.70;60.90
22469;DHT22;11401;50.792;4.352;2023-05-10T15:41:23;19.70;60.80
22469;DHT22;11401;50.792;4.352;2023-05-10T15:43:51;19.70;60.20
22469;DHT22;11401;50.792;4.352;2023-05-10T15:46:18;19.70;59.90
22469;DHT22;11401;50.792;4.352;2023-05-10T15:48:45;19.70;59.70
22469;DHT22;11401;50.792;4.352;2023-05-10T15:51:12;19.70;59.20
22469;DHT22;11401;50.792;4.352;2023-05-10T15:53:39;19.80;61.60
22469;DHT22;11401;50.792;4.352;2023-05-10T15:56:22;19.90;62.40
22469;DHT22;11401;50.792;4.352;2023-05-10T15:58:49;20.10;63.10
22469;DHT22;11401;50.792;4.352;2023-05-10T16:01:17;20.20;63.50
22469;DHT22;11401;50.792;4.352;2023-05-10T16:03:44;20.10;61.10
22469;DHT22;11401;50.792;4.352;2023-05-10T16:06:11;20.10;62.70
22469;DHT22;11401;50.792;4.352;2023-05-10T16:08:38;20.00;59.80
22469;DHT22;11401;50.792;4.352;2023-05-10T16:11:06;19.90;59.70
22469;DHT22;11401;50.792;4.352;2023-05-10T16:13:33;20.00;59.60
22469;DHT22;11401;50.792;4.352;2023-05-10T16:16:00;19.90;59.00
22469;DHT22;11401;50.792;4.352;2023-05-10T16:18:27;19.80;58.70
22469;DHT22;11401;50.792;4.352;2023-05-10T16:20:54;19.80;58.40
22469;DHT22;11401;50.792;4.352;2023-05-10T16:23:21;19.80;58.70